createdAt,value
2022-12-02T00:01:55.462Z,59.91
2022-12-02T00:04:28.279Z,59.36
2022-12-02T00:06:57.303Z,58.28
2022-12-02T00:09:30.655Z,60.29
2022-12-02T00:11:59.433Z,64.96
2022-12-02T00:14:29.881Z,65.92
2022-12-02T00:16:57.823Z,65.33
2022-12-02T00:19:25.902Z,64.10
2022-12-02T00:21:53.761Z,63.40
2022-12-02T00:24:21.671Z,62.85
2022-12-02T00:26:49.798Z,62.83
2022-12-02T00:29:17.781Z,62.15
2022-12-02T00:31:45.809Z,61.54
2022-12-02T00:34:14.008Z,61.41
2022-12-02T00:36:41.993Z,60.40
2022-12-02T00:39:11.483Z,59.09
2022-12-02T00:41:40.204Z,59.57
2022-12-02T00:44:26.679Z,62.46
2022-12-02T00:46:54.496Z,66.30
2022-12-02T00:49:22.509Z,66.13
2022-12-02T00:51:50.877Z,65.06
2022-12-02T00:54:18.813Z,63.48
2022-12-02T00:56:46.663Z,62.55
2022-12-02T00:59:14.678Z,61.22
2022-12-02T01:01:44.869Z,60.38
2022-12-02T01:04:12.906Z,60.23
2022-12-02T01:06:40.769Z,59.83
2022-12-02T01:09:10.185Z,58.33
2022-12-02T01:11:38.104Z,59.88
2022-12-02T01:14:05.972Z,63.63
2022-12-02T01:16:34.252Z,66.76
2022-12-02T01:19:02.211Z,65.33
2022-12-02T01:21:30.005Z,65.41
2022-12-02T01:23:58.252Z,65.01
2022-12-02T01:26:26.217Z,63.90
2022-12-02T01:28:54.189Z,62.94
2022-12-02T01:31:22.026Z,62.26
2022-12-02T01:33:49.899Z,62.01
2022-12-02T01:36:17.986Z,61.58
2022-12-02T01:38:45.900Z,61.41
2022-12-02T01:41:13.923Z,61.75
2022-12-02T01:43:43.529Z,61.75
2022-12-02T01:46:11.551Z,62.03
2022-12-02T01:48:39.502Z,61.45
2022-12-02T01:51:07.381Z,60.94
2022-12-02T01:53:35.303Z,60.51
2022-12-02T01:56:03.203Z,60.46
2022-12-02T01:58:33.486Z,60.68
2022-12-02T02:01:01.566Z,60.06
2022-12-02T02:03:29.726Z,60.47
2022-12-02T02:05:57.703Z,60.55
2022-12-02T02:08:25.542Z,60.42
2022-12-02T02:10:53.441Z,60.10
2022-12-02T02:13:21.460Z,59.78
2022-12-02T02:15:49.465Z,59.44
2022-12-02T02:18:17.842Z,58.72
2022-12-02T02:20:46.221Z,60.36
2022-12-02T02:23:22.813Z,60.28
2022-12-02T02:25:54.447Z,60.66
2022-12-02T02:28:24.868Z,61.58
2022-12-02T02:30:54.802Z,68.44
2022-12-02T02:33:23.800Z,69.30
2022-12-02T02:35:51.953Z,66.51
2022-12-02T02:38:23.209Z,64.67
2022-12-02T02:40:51.682Z,63.23
2022-12-02T02:43:20.873Z,62.02
2022-12-02T02:45:49.369Z,62.49
2022-12-02T02:48:18.253Z,61.87
2022-12-02T02:50:47.332Z,61.59
2022-12-02T02:53:18.779Z,60.85
2022-12-02T02:55:46.856Z,60.44
2022-12-02T02:58:15.018Z,60.32
2022-12-02T03:00:59.844Z,60.05
2022-12-02T03:03:31.790Z,60.71
2022-12-02T03:06:00.548Z,60.70
2022-12-02T03:08:29.630Z,60.70
2022-12-02T03:10:57.596Z,60.19
2022-12-02T03:13:25.768Z,60.09
2022-12-02T03:15:53.738Z,60.26
2022-12-02T03:18:21.704Z,60.78
2022-12-02T03:20:49.737Z,60.73
2022-12-02T03:23:17.844Z,60.26
2022-12-02T03:25:45.753Z,59.98
2022-12-02T03:28:13.677Z,60.02
2022-12-02T03:30:41.604Z,59.82
2022-12-02T03:33:09.496Z,60.31
2022-12-02T03:35:37.403Z,60.58
2022-12-02T03:38:05.347Z,61.10
2022-12-02T03:40:33.414Z,61.16
2022-12-02T03:43:01.385Z,61.39
2022-12-02T03:45:29.219Z,61.46
2022-12-02T03:47:57.219Z,61.26
2022-12-02T03:50:25.182Z,60.89
2022-12-02T03:52:54.185Z,60.73
2022-12-02T03:55:22.142Z,60.51
2022-12-02T03:57:50.008Z,60.36
2022-12-02T04:00:18.387Z,60.51
2022-12-02T04:02:46.303Z,60.58
2022-12-02T04:05:14.327Z,60.85
2022-12-02T04:07:42.404Z,60.93
2022-12-02T04:10:11.635Z,61.05
2022-12-02T04:12:39.570Z,61.59
2022-12-02T04:15:08.417Z,61.11
2022-12-02T04:17:36.338Z,61.27
2022-12-02T04:20:05.994Z,61.56
2022-12-02T04:22:33.996Z,61.26
2022-12-02T04:25:04.213Z,60.99
2022-12-02T04:27:32.190Z,60.58
2022-12-02T04:30:00.144Z,60.81
2022-12-02T04:32:28.115Z,60.93
2022-12-02T04:34:55.979Z,60.55
2022-12-02T04:37:23.844Z,60.00
2022-12-02T04:39:51.678Z,60.15
2022-12-02T04:42:19.618Z,60.07
2022-12-02T04:44:47.524Z,60.33
2022-12-02T04:47:15.509Z,60.50
2022-12-02T04:49:43.340Z,60.00
2022-12-02T04:52:11.456Z,60.42
2022-12-02T04:54:39.517Z,60.00
2022-12-02T04:57:08.305Z,59.67
2022-12-02T04:59:36.271Z,59.02
2022-12-02T05:02:04.237Z,59.59
2022-12-02T05:04:38.296Z,61.97
2022-12-02T05:07:08.031Z,66.89
2022-12-02T05:09:35.945Z,66.85
2022-12-02T05:12:03.999Z,64.37
2022-12-02T05:14:31.970Z,61.08
2022-12-02T05:17:00.033Z,59.24
2022-12-02T05:19:28.206Z,59.68
2022-12-02T05:21:55.995Z,62.74
2022-12-02T05:24:23.981Z,66.21
2022-12-02T05:26:51.911Z,65.98
2022-12-02T05:29:20.932Z,64.52
2022-12-02T05:31:49.035Z,63.36
2022-12-02T05:34:16.995Z,62.62
2022-12-02T05:36:44.871Z,61.88
2022-12-02T05:39:12.771Z,61.18
2022-12-02T05:41:41.051Z,60.81
2022-12-02T05:44:25.087Z,59.43
2022-12-02T05:46:53.116Z,58.57
2022-12-02T05:49:23.239Z,60.21
2022-12-02T05:51:59.640Z,65.22
2022-12-02T05:54:28.326Z,66.47
2022-12-02T05:56:56.905Z,65.06
2022-12-02T05:59:24.876Z,63.44
2022-12-02T06:01:55.022Z,62.40
2022-12-02T06:04:25.994Z,61.46
2022-12-02T06:06:54.898Z,61.32
2022-12-02T06:09:29.034Z,60.82
2022-12-02T06:11:57.619Z,60.65
2022-12-02T06:14:28.609Z,60.69
2022-12-02T06:17:00.504Z,60.32
2022-12-02T06:19:43.565Z,60.42
2022-12-02T06:22:27.322Z,61.24
2022-12-02T06:25:01.139Z,60.45
2022-12-02T06:27:29.324Z,60.02
2022-12-02T06:30:00.126Z,59.64
2022-12-02T06:32:41.471Z,59.99
2022-12-02T06:35:30.184Z,59.45
2022-12-02T06:38:00.662Z,59.38
2022-12-02T06:40:31.508Z,61.48
2022-12-02T06:43:01.265Z,64.65
2022-12-02T06:45:33.525Z,68.09
2022-12-02T06:48:23.342Z,66.69
2022-12-02T06:50:51.375Z,65.25
2022-12-02T06:53:27.065Z,64.24
2022-12-02T06:56:17.858Z,63.33
2022-12-02T06:58:48.290Z,62.39
2022-12-02T07:01:21.446Z,61.34
2022-12-02T07:04:08.708Z,61.82
2022-12-02T07:06:41.691Z,61.57
2022-12-02T07:09:18.272Z,61.06
2022-12-02T07:11:51.270Z,60.45
2022-12-02T07:14:30.228Z,60.52
2022-12-02T07:17:02.368Z,60.59
2022-12-02T07:19:39.945Z,59.92
2022-12-02T07:22:22.400Z,60.76
2022-12-02T07:24:58.043Z,60.28
2022-12-02T07:27:30.707Z,60.08
2022-12-02T07:29:58.578Z,60.35
2022-12-02T07:32:26.600Z,60.22
2022-12-02T07:34:54.587Z,59.67
2022-12-02T07:37:22.632Z,59.03
2022-12-02T07:39:50.802Z,59.53
2022-12-02T07:42:18.611Z,61.15
2022-12-02T07:44:46.505Z,65.79
2022-12-02T07:47:14.323Z,65.91
2022-12-02T07:49:42.143Z,64.01
2022-12-02T07:52:10.128Z,62.60
2022-12-02T07:54:38.112Z,61.66
2022-12-02T07:57:06.141Z,60.68
2022-12-02T07:59:34.026Z,60.85
2022-12-02T08:02:02.134Z,60.55
2022-12-02T08:04:30.136Z,59.90
2022-12-02T08:06:58.140Z,60.09
2022-12-02T08:09:25.963Z,60.35
2022-12-02T08:11:53.994Z,59.96
2022-12-02T08:14:21.903Z,58.73
2022-12-02T08:16:49.810Z,59.19
2022-12-02T08:19:17.802Z,62.75
2022-12-02T08:21:45.787Z,66.24
2022-12-02T08:24:13.781Z,65.10
2022-12-02T08:26:43.557Z,63.89
2022-12-02T08:29:11.441Z,61.93
2022-12-02T08:31:39.376Z,61.40
2022-12-02T08:34:07.946Z,62.03
2022-12-02T08:36:35.965Z,61.26
2022-12-02T08:39:06.016Z,61.21
2022-12-02T08:41:35.002Z,60.59
2022-12-02T08:44:02.884Z,59.81
2022-12-02T08:46:31.482Z,59.52
2022-12-02T08:49:00.175Z,61.51
2022-12-02T08:51:28.306Z,65.29
2022-12-02T08:53:56.231Z,65.90
2022-12-02T08:56:24.136Z,64.42
2022-12-02T08:58:52.044Z,62.68
2022-12-02T09:01:19.959Z,61.81
2022-12-02T09:03:48.008Z,61.04
2022-12-02T09:06:15.923Z,60.41
2022-12-02T09:08:43.883Z,60.28
2022-12-02T09:11:12.173Z,59.97
2022-12-02T09:13:40.244Z,59.26
2022-12-02T09:16:08.314Z,58.99
2022-12-02T09:18:36.203Z,60.33
2022-12-02T09:21:04.080Z,64.16
2022-12-02T09:23:32.065Z,65.59
2022-12-02T09:25:59.908Z,64.08
2022-12-02T09:28:27.827Z,62.85
2022-12-02T09:30:55.636Z,61.22
2022-12-02T09:33:25.171Z,60.90
2022-12-02T09:35:56.000Z,60.23
2022-12-02T09:38:24.276Z,59.93
2022-12-02T09:40:52.065Z,59.60
2022-12-02T09:43:19.862Z,57.72
2022-12-02T09:45:47.716Z,59.51
2022-12-02T09:48:15.534Z,61.78
2022-12-02T09:50:43.556Z,65.31
2022-12-02T09:53:12.639Z,66.28
2022-12-02T09:55:40.615Z,65.07
2022-12-02T09:58:20.072Z,62.55
2022-12-02T10:00:47.927Z,61.57
2022-12-02T10:03:18.891Z,60.34
2022-12-02T10:05:47.158Z,60.30
2022-12-02T10:08:21.572Z,60.61
2022-12-02T10:10:49.490Z,59.76
2022-12-02T10:13:19.695Z,58.55
2022-12-02T10:15:47.943Z,58.57
2022-12-02T10:18:28.075Z,62.17
2022-12-02T10:20:56.292Z,65.02
2022-12-02T10:23:25.891Z,64.52
2022-12-02T10:26:10.716Z,63.57
2022-12-02T10:28:39.009Z,62.00
2022-12-02T10:31:22.681Z,61.59
2022-12-02T10:34:19.138Z,59.70
2022-12-02T10:36:47.224Z,58.87
2022-12-02T10:39:21.107Z,60.67
2022-12-02T10:42:04.259Z,64.19
2022-12-02T10:44:42.966Z,66.69
2022-12-02T10:47:26.661Z,64.85
2022-12-02T10:49:59.170Z,62.99
2022-12-02T10:52:35.140Z,62.25
2022-12-02T10:55:03.761Z,61.38
2022-12-02T10:57:32.994Z,60.96
2022-12-02T11:00:07.421Z,60.73
2022-12-02T11:02:39.061Z,61.05
2022-12-02T11:05:24.746Z,61.23
2022-12-02T11:08:20.129Z,60.29
2022-12-02T11:10:51.794Z,59.65
2022-12-02T11:13:49.847Z,58.64
2022-12-02T11:16:26.922Z,58.14
2022-12-02T11:19:13.339Z,61.32
2022-12-02T11:21:42.893Z,64.85
2022-12-02T11:24:23.258Z,65.56
2022-12-02T11:27:00.027Z,63.80
2022-12-02T11:29:35.519Z,62.31
2022-12-02T11:32:21.832Z,61.08
2022-12-02T11:37:47.065Z,60.48
2022-12-02T11:40:17.913Z,60.40
2022-12-02T11:42:46.114Z,61.16
2022-12-02T11:45:16.948Z,60.14
2022-12-02T11:47:54.288Z,59.47
2022-12-02T11:50:48.231Z,58.76
2022-12-02T11:53:21.005Z,63.67
2022-12-02T11:55:53.653Z,65.61
2022-12-02T11:58:32.464Z,65.01
2022-12-02T12:01:12.536Z,63.12
2022-12-02T12:03:42.294Z,61.67
2022-12-02T12:06:12.018Z,60.63
2022-12-02T12:08:43.170Z,60.61
2022-12-02T12:11:42.435Z,60.08
2022-12-02T12:14:13.269Z,58.56
2022-12-02T12:16:43.460Z,61.25
2022-12-02T12:19:17.336Z,64.49
2022-12-02T12:21:58.158Z,65.31
2022-12-02T12:24:28.396Z,64.29
2022-12-02T12:26:58.361Z,63.01
2022-12-02T12:29:30.525Z,61.87
2022-12-02T12:31:58.564Z,60.95
2022-12-02T12:34:26.465Z,60.39
2022-12-02T12:36:54.375Z,60.64
2022-12-02T12:39:22.354Z,60.00
2022-12-02T12:42:05.451Z,59.49
2022-12-02T12:44:33.494Z,58.81
2022-12-02T12:47:04.264Z,61.36
2022-12-02T12:49:33.790Z,65.11
2022-12-02T12:52:02.039Z,65.28
2022-12-02T12:54:30.039Z,63.20
2022-12-02T12:56:57.997Z,62.28
2022-12-02T12:59:25.792Z,61.73
2022-12-02T13:01:53.898Z,61.47
2022-12-02T13:04:21.805Z,61.15
2022-12-02T13:06:49.636Z,60.83
2022-12-02T13:09:17.604Z,60.51
2022-12-02T13:11:45.416Z,59.60
2022-12-02T13:14:13.235Z,58.77
2022-12-02T13:16:41.200Z,60.06
2022-12-02T13:19:09.118Z,62.52
2022-12-02T13:21:36.921Z,66.01
2022-12-02T13:24:05.650Z,65.33
2022-12-02T13:26:33.451Z,63.71
2022-12-02T13:29:01.324Z,62.56
2022-12-02T13:31:29.309Z,61.67
2022-12-02T13:33:57.287Z,60.81
2022-12-02T13:36:25.208Z,60.45
2022-12-02T13:38:53.040Z,60.22
2022-12-02T13:41:21.163Z,59.73
2022-12-02T13:43:48.920Z,58.18
2022-12-02T13:46:16.892Z,58.92
2022-12-02T13:48:44.792Z,61.23
2022-12-02T13:51:12.521Z,64.75
2022-12-02T13:53:41.068Z,66.06
2022-12-02T13:56:08.969Z,64.43
2022-12-02T13:58:36.793Z,63.34
2022-12-02T14:01:04.804Z,61.72
2022-12-02T14:03:32.817Z,60.88
2022-12-02T14:06:00.712Z,60.59
2022-12-02T14:08:28.586Z,60.18
2022-12-02T14:10:56.427Z,59.74
2022-12-02T14:13:24.338Z,59.65
2022-12-02T14:15:52.195Z,58.13
2022-12-02T14:18:20.074Z,58.98
2022-12-02T14:20:47.849Z,62.33
2022-12-02T14:23:15.910Z,65.52
2022-12-02T14:25:43.716Z,65.20
2022-12-02T14:28:11.591Z,63.76
2022-12-02T14:30:39.486Z,61.57
2022-12-02T14:33:07.303Z,60.51
2022-12-02T14:35:35.225Z,60.47
2022-12-02T14:38:03.065Z,60.26
2022-12-02T14:40:31.976Z,60.22
2022-12-02T14:42:59.718Z,59.99
2022-12-02T14:45:27.543Z,59.72
2022-12-02T14:47:55.426Z,59.75
2022-12-02T14:50:27.890Z,59.72
2022-12-02T14:52:59.180Z,59.16
2022-12-02T14:55:26.919Z,58.23
2022-12-02T14:57:54.695Z,60.45
2022-12-02T15:00:22.614Z,65.43
2022-12-02T15:02:50.578Z,66.43
2022-12-02T15:05:20.700Z,65.61
2022-12-02T15:07:48.705Z,64.73
2022-12-02T15:10:17.209Z,63.33
2022-12-02T15:12:45.076Z,62.31
2022-12-02T15:18:00.775Z,61.11
2022-12-02T15:20:28.949Z,60.55
2022-12-02T15:22:56.712Z,60.61
2022-12-02T15:25:24.779Z,59.98
2022-12-02T15:27:52.644Z,59.72
2022-12-02T15:30:20.720Z,58.51
2022-12-02T15:32:48.856Z,59.42
2022-12-02T15:35:16.854Z,60.86
2022-12-02T15:37:45.439Z,61.80
2022-12-02T15:40:13.815Z,67.30
2022-12-02T15:42:41.639Z,65.69
2022-12-02T15:45:09.751Z,64.05
2022-12-02T15:47:37.718Z,63.42
2022-12-02T15:50:06.608Z,62.33
2022-12-02T15:52:34.477Z,62.16
2022-12-02T15:55:02.292Z,61.51
2022-12-02T15:57:30.206Z,60.77
2022-12-02T15:59:58.686Z,60.57
2022-12-02T16:02:26.528Z,60.59
2022-12-02T16:04:54.824Z,60.10
2022-12-02T16:07:23.167Z,59.91
2022-12-02T16:09:51.279Z,59.99
2022-12-02T16:12:19.449Z,59.94
2022-12-02T16:14:53.662Z,58.92
2022-12-02T16:17:23.163Z,60.16
2022-12-02T16:19:51.130Z,61.17
2022-12-02T16:22:18.991Z,66.37
2022-12-02T16:24:46.977Z,66.76
2022-12-02T16:27:15.038Z,65.46
2022-12-02T16:29:43.003Z,64.00
2022-12-02T16:32:15.317Z,62.83
2022-12-02T16:34:46.438Z,62.50
2022-12-02T16:37:17.425Z,61.93
2022-12-02T16:39:45.434Z,60.82
2022-12-02T16:42:13.289Z,60.66
2022-12-02T16:44:41.357Z,60.64
2022-12-02T16:47:09.221Z,60.14
2022-12-02T16:49:37.090Z,60.28
2022-12-02T16:52:05.365Z,59.94
2022-12-02T16:54:33.229Z,60.19
2022-12-02T16:57:01.095Z,59.86
2022-12-02T16:59:29.061Z,59.53
2022-12-02T17:01:56.984Z,59.52
2022-12-02T17:04:25.407Z,58.41
2022-12-02T17:06:53.377Z,59.82
2022-12-02T17:09:21.687Z,64.78
2022-12-02T17:11:49.571Z,66.68
2022-12-02T17:14:17.486Z,65.40
2022-12-02T17:16:45.586Z,64.45
2022-12-02T17:19:13.692Z,63.75
2022-12-02T17:21:41.900Z,63.15
2022-12-02T17:24:09.974Z,62.26
2022-12-02T17:26:37.937Z,61.63
2022-12-02T17:29:05.744Z,61.42
2022-12-02T17:31:33.640Z,60.94
2022-12-02T17:34:01.684Z,60.42
2022-12-02T17:36:29.506Z,60.47
2022-12-02T17:38:57.807Z,60.32
2022-12-02T17:41:26.784Z,59.93
2022-12-02T17:43:54.568Z,60.60
2022-12-02T17:46:22.536Z,60.37
2022-12-02T17:48:50.776Z,60.38
2022-12-02T17:51:18.639Z,60.36
2022-12-02T17:53:46.714Z,60.32
2022-12-02T17:56:14.781Z,60.63
2022-12-02T17:58:42.645Z,60.03
2022-12-02T18:01:12.339Z,60.04
2022-12-02T18:03:40.650Z,60.04
2022-12-02T18:06:08.858Z,60.31
2022-12-02T18:08:36.872Z,60.21
2022-12-02T18:11:05.049Z,59.98
2022-12-02T18:13:32.971Z,60.06
2022-12-02T18:16:00.983Z,60.44
2022-12-02T18:18:28.849Z,60.36
2022-12-02T18:20:57.330Z,60.08
2022-12-02T18:23:27.819Z,60.03
2022-12-02T18:25:56.026Z,59.89
2022-12-02T18:28:25.356Z,59.94
2022-12-02T18:30:53.179Z,60.06
2022-12-02T18:33:21.230Z,60.31
2022-12-02T18:35:49.081Z,60.60
2022-12-02T18:38:16.891Z,60.84
2022-12-02T18:40:44.764Z,60.74
2022-12-02T18:43:12.555Z,60.96
2022-12-02T18:45:40.390Z,60.73
2022-12-02T18:48:08.497Z,60.69
2022-12-02T18:50:36.427Z,60.57
2022-12-02T18:53:04.595Z,60.50
2022-12-02T18:55:32.467Z,60.45
2022-12-02T18:58:00.282Z,60.01
2022-12-02T19:00:28.296Z,60.28
2022-12-02T19:02:56.213Z,59.98
2022-12-02T19:05:24.193Z,59.83
2022-12-02T19:07:52.308Z,59.69
2022-12-02T19:10:20.372Z,59.61
2022-12-02T19:12:48.337Z,58.80
2022-12-02T19:15:16.122Z,60.05
2022-12-02T19:17:44.173Z,63.40
2022-12-02T19:20:12.448Z,67.08
2022-12-02T19:22:40.620Z,65.73
2022-12-02T19:25:08.587Z,64.13
2022-12-02T19:30:24.395Z,63.37
2022-12-02T19:32:52.460Z,63.04
2022-12-02T19:35:20.325Z,62.46
2022-12-02T19:37:48.190Z,61.85
2022-12-02T19:40:16.017Z,61.41
2022-12-02T19:42:45.296Z,61.44
2022-12-02T19:45:14.755Z,61.18
2022-12-02T19:47:42.931Z,61.13
2022-12-02T19:50:13.222Z,61.41
2022-12-02T19:52:41.526Z,61.13
2022-12-02T19:55:16.665Z,60.90
2022-12-02T19:57:44.563Z,60.81
2022-12-02T20:00:14.794Z,60.33
2022-12-02T20:02:42.982Z,59.90
2022-12-02T20:05:14.267Z,59.92
2022-12-02T20:07:42.380Z,59.85
2022-12-02T20:10:11.261Z,59.79
2022-12-02T20:12:39.401Z,59.66
2022-12-02T20:15:08.289Z,59.70
2022-12-02T20:17:36.127Z,60.02
2022-12-02T20:20:06.104Z,60.35
2022-12-02T20:22:34.448Z,60.44
2022-12-02T20:25:02.416Z,59.97
2022-12-02T20:27:30.483Z,59.68
2022-12-02T20:29:58.306Z,60.03
2022-12-02T20:32:26.215Z,59.88
2022-12-02T20:34:54.324Z,59.99
2022-12-02T20:37:23.073Z,59.90
2022-12-02T20:39:50.936Z,59.96
2022-12-02T20:42:18.707Z,60.00
2022-12-02T20:44:52.090Z,60.24
2022-12-02T20:47:20.613Z,60.19
2022-12-02T20:49:48.517Z,60.01
2022-12-02T20:52:16.411Z,60.09
2022-12-02T20:54:44.375Z,60.59
2022-12-02T20:57:12.857Z,60.43
2022-12-02T20:59:40.723Z,60.38
2022-12-02T21:02:10.509Z,60.16
2022-12-02T21:04:38.920Z,60.16
2022-12-02T21:07:09.756Z,60.46
2022-12-02T21:09:39.753Z,60.83
2022-12-02T21:12:08.343Z,60.59
2022-12-02T21:14:36.214Z,60.07
2022-12-02T21:17:04.013Z,60.35
2022-12-02T21:19:32.048Z,60.19
2022-12-02T21:22:00.011Z,59.92
2022-12-02T21:24:27.851Z,59.61
2022-12-02T21:26:55.742Z,60.05
2022-12-02T21:29:23.565Z,60.07
2022-12-02T21:31:51.601Z,59.86
2022-12-02T21:34:19.542Z,59.65
2022-12-02T21:36:47.408Z,59.56
2022-12-02T21:39:15.399Z,59.63
2022-12-02T21:41:43.448Z,59.56
2022-12-02T21:44:11.409Z,59.74
2022-12-02T21:46:39.384Z,59.59
2022-12-02T21:49:07.350Z,59.34
2022-12-02T21:51:35.186Z,58.50
2022-12-02T21:54:03.083Z,60.32
2022-12-02T21:56:36.142Z,63.21
2022-12-02T21:59:04.766Z,67.33
2022-12-02T22:01:38.554Z,66.43
2022-12-02T22:04:07.316Z,64.97
2022-12-02T22:06:35.208Z,63.73
2022-12-02T22:09:04.377Z,63.23
2022-12-02T22:11:32.497Z,62.47
2022-12-02T22:14:00.650Z,62.20
2022-12-02T22:16:28.601Z,61.75
2022-12-02T22:18:56.662Z,61.46
2022-12-02T22:21:24.665Z,60.97
2022-12-02T22:23:52.523Z,60.73
2022-12-02T22:26:20.561Z,60.64
2022-12-02T22:28:48.560Z,60.63
2022-12-02T22:31:16.564Z,60.63
2022-12-02T22:33:44.597Z,60.24
2022-12-02T22:36:12.462Z,60.28
2022-12-02T22:38:40.274Z,60.60
2022-12-02T22:41:08.194Z,60.65
2022-12-02T22:43:35.998Z,60.73
2022-12-02T22:46:03.825Z,60.06
2022-12-02T22:48:31.719Z,59.97
2022-12-02T22:50:59.544Z,59.86
2022-12-02T22:53:27.418Z,59.74
2022-12-02T22:55:55.282Z,59.80
2022-12-02T22:58:23.251Z,60.03
2022-12-02T23:00:51.478Z,59.73
2022-12-02T23:03:19.310Z,59.75
2022-12-02T23:05:47.155Z,59.53
2022-12-02T23:08:15.180Z,58.66
2022-12-02T23:10:43.195Z,61.05
2022-12-02T23:13:11.035Z,62.83
2022-12-02T23:15:39.750Z,68.27
2022-12-02T23:18:07.927Z,68.10
2022-12-02T23:20:35.920Z,65.13
2022-12-02T23:23:04.260Z,64.35
2022-12-02T23:25:32.333Z,63.90
2022-12-02T23:28:00.817Z,63.15
2022-12-02T23:30:29.764Z,62.72
2022-12-02T23:32:58.899Z,62.32
2022-12-02T23:35:27.430Z,62.22
2022-12-02T23:37:55.343Z,61.94
2022-12-02T23:40:23.414Z,61.88
2022-12-02T23:42:51.382Z,61.58
2022-12-02T23:45:19.247Z,60.87
2022-12-02T23:47:47.223Z,60.94
2022-12-02T23:50:15.116Z,60.72
2022-12-02T23:52:43.059Z,60.56
2022-12-02T23:55:11.222Z,60.25
2022-12-02T23:57:39.496Z,60.21
